Time;durP1;ratioP1;P1;durP2;ratioP2;P2;SDS_P1;SDS_P2;PMS_P1;PMS_P2;Temp;Humidity;BMP_temperature;BMP_pressure;BME280_temperature;BME280_humidity;BME280_pressure;Samples;Min_cycle;Max_cycle;Signal;HPM_P1;HPM_P2
2022/08/01 00:00:05;;;;;;;2.17;2.08;;;25.20;39.30;;;;;;20392;6881;310667;-89
2022/08/01 00:02:31;;;;;;;2.10;2.00;;;25.20;39.30;;;;;;20592;6881;117775;-91
2022/08/01 00:04:57;;;;;;;2.15;1.90;;;25.00;39.40;;;;;;20608;6881;118304;-91
2022/08/01 00:07:23;;;;;;;5.83;2.77;;;24.70;39.60;;;;;;20606;6881;118201;-88
2022/08/01 00:09:50;;;;;;;1.90;1.80;;;24.40;39.90;;;;;;20614;6881;118009;-92
2022/08/01 00:12:15;;;;;;;2.10;1.90;;;24.30;40.30;;;;;;20396;6881;314040;-88
2022/08/01 00:14:41;;;;;;;2.00;1.90;;;24.50;39.90;;;;;;20403;6879;310620;-89
2022/08/01 00:17:07;;;;;;;2.08;1.92;;;24.80;39.40;;;;;;20387;6881;346659;-91
2022/08/01 00:19:33;;;;;;;6.10;2.03;;;24.90;38.90;;;;;;20622;6881;118211;-90
2022/08/01 00:21:58;;;;;;;2.20;2.00;;;24.90;38.80;;;;;;20396;6881;311020;-88
2022/08/01 00:24:24;;;;;;;2.22;2.03;;;25.00;38.70;;;;;;20408;6881;310916;-89
2022/08/01 00:26:50;;;;;;;1.92;1.83;;;25.20;38.30;;;;;;20403;6881;280754;-90
2022/08/01 00:29:15;;;;;;;2.00;1.90;;;25.30;38.30;;;;;;20387;6881;313932;-92
2022/08/01 00:31:41;;;;;;;1.98;1.80;;;25.50;38.00;;;;;;20406;6881;283397;-92
2022/08/01 00:34:07;;;;;;;2.40;1.80;;;25.40;37.90;;;;;;20403;6881;280549;-89
2022/08/01 00:36:33;;;;;;;1.95;1.85;;;25.50;38.00;;;;;;20395;6881;310135;-89
2022/08/01 00:38:58;;;;;;;1.85;1.83;;;25.50;37.90;;;;;;20600;6881;118035;-92
2022/08/01 00:41:24;;;;;;;2.00;1.90;;;25.30;38.30;;;;;;20617;6881;120026;-92
2022/08/01 00:43:50;;;;;;;1.87;1.77;;;24.50;39.20;;;;;;20617;6881;117578;-92
2022/08/01 00:46:16;;;;;;;2.70;2.03;;;24.50;39.20;;;;;;20396;6881;314515;-89
2022/08/01 00:48:41;;;;;;;3.87;2.10;;;24.60;38.90;;;;;;20393;6881;315702;-90
2022/08/01 00:51:08;;;;;;;2.20;2.10;;;24.90;38.80;;;;;;20606;6881;120383;-90
2022/08/01 00:53:34;;;;;;;2.27;2.17;;;24.80;38.80;;;;;;20625;6881;119183;-90
2022/08/01 00:55:59;;;;;;;3.33;2.23;;;24.50;39.10;;;;;;20612;6881;117761;-89
2022/08/01 00:58:25;;;;;;;2.53;2.20;;;24.20;39.40;;;;;;20393;6881;310276;-91
2022/08/01 01:00:52;;;;;;;2.10;2.00;;;24.40;39.50;;;;;;20377;6881;339939;-91
2022/08/01 01:03:17;;;;;;;2.30;2.10;;;24.70;39.00;;;;;;20382;6881;319604;-88
2022/08/01 01:05:43;;;;;;;2.03;1.93;;;24.90;38.70;;;;;;20397;6881;339017;-91
2022/08/01 01:08:09;;;;;;;2.73;2.17;;;25.00;38.40;;;;;;20521;6881;121745;-89
2022/08/01 01:10:54;;;;;;;2.30;2.10;;;24.80;38.60;;;;;;20379;6881;280128;-89
2022/08/01 01:13:24;;;;;;;2.53;1.93;;;24.80;39.00;;;;;;20587;6881;118842;-91
2022/08/01 01:15:50;;;;;;;1.97;1.87;;;24.50;39.10;;;;;;20590;6881;118214;-90
2022/08/01 01:18:22;;;;;;;2.33;2.00;;;24.20;39.50;;;;;;20386;6881;317359;-90
2022/08/01 01:20:58;;;;;;;2.27;2.00;;;24.30;39.70;;;;;;20395;6881;314927;-89
2022/08/01 01:23:33;;;;;;;2.00;1.90;;;24.50;39.60;;;;;;20591;6881;118486;-89
2022/08/01 01:26:29;;;;;;;3.00;2.10;;;24.30;39.50;;;;;;20368;6879;293720;-91
2022/08/01 01:29:01;;;;;;;2.63;2.20;;;24.40;39.80;;;;;;20610;6881;118857;-92
2022/08/01 01:31:27;;;;;;;2.40;2.30;;;24.10;39.90;;;;;;20587;6881;118012;-90
2022/08/01 01:33:52;;;;;;;2.70;2.27;;;23.80;40.30;;;;;;20602;6881;117721;-92
2022/08/01 01:36:18;;;;;;;2.25;2.15;;;23.50;40.60;;;;;;20396;6881;297856;-89
2022/08/01 01:38:45;;;;;;;2.00;1.90;;;23.70;40.70;;;;;;20390;6881;309747;-90
2022/08/01 01:41:11;;;;;;;2.33;2.20;;;23.90;40.00;;;;;;20576;6881;119439;-89
2022/08/01 01:43:37;;;;;;;2.40;2.30;;;23.80;40.00;;;;;;20395;6881;280983;-93
2022/08/01 01:46:02;;;;;;;2.40;2.30;;;23.90;40.10;;;;;;20604;6881;117793;-90
2022/08/01 01:48:28;;;;;;;2.40;2.20;;;23.80;40.20;;;;;;20392;6881;281038;-91
2022/08/01 01:50:53;;;;;;;2.30;2.13;;;23.90;40.30;;;;;;20399;6881;308316;-91
2022/08/01 01:53:20;;;;;;;2.30;2.20;;;24.10;40.10;;;;;;20588;6881;122219;-89
2022/08/01 01:55:46;;;;;;;2.60;2.40;;;23.90;40.00;;;;;;20384;6881;284211;-89
2022/08/01 01:58:12;;;;;;;2.33;2.13;;;23.90;40.30;;;;;;20395;6881;309861;-92
2022/08/01 02:00:37;;;;;;;2.40;2.20;;;24.10;40.00;;;;;;20386;6881;301645;-89
2022/08/01 02:03:03;;;;;;;2.40;2.30;;;24.20;39.90;;;;;;20588;6881;121773;-88
2022/08/01 02:05:29;;;;;;;2.30;2.20;;;23.60;40.40;;;;;;20592;6881;119053;-89
2022/08/01 02:07:55;;;;;;;2.50;2.40;;;23.60;40.40;;;;;;20398;6881;308684;-89
2022/08/01 02:10:20;;;;;;;2.37;2.20;;;23.70;40.80;;;;;;20396;6881;295735;-93
2022/08/01 02:12:46;;;;;;;2.62;2.42;;;24.10;40.40;;;;;;20402;6881;308951;-90
2022/08/01 02:15:12;;;;;;;2.40;2.30;;;24.00;40.30;;;;;;20373;6881;284888;-93
2022/08/01 02:17:37;;;;;;;2.40;2.30;;;24.20;40.30;;;;;;20395;6881;283810;-88
2022/08/01 02:20:03;;;;;;;2.50;2.40;;;24.20;40.10;;;;;;20394;6881;280985;-90
2022/08/01 02:22:29;;;;;;;2.35;2.25;;;24.20;40.20;;;;;;20389;6881;280112;-91
2022/08/01 02:24:55;;;;;;;2.43;2.33;;;23.90;40.20;;;;;;20609;6881;119206;-89
2022/08/01 02:27:21;;;;;;;2.47;2.37;;;23.90;40.20;;;;;;20357;6881;343235;-88
2022/08/01 02:29:54;;;;;;;2.58;2.37;;;23.90;40.40;;;;;;20390;6881;280605;-88
2022/08/01 02:32:20;;;;;;;2.43;2.33;;;24.00;40.30;;;;;;20581;6881;118228;-93
2022/08/01 02:34:45;;;;;;;2.75;2.60;;;23.70;40.40;;;;;;20389;6881;335525;-90
2022/08/01 02:37:11;;;;;;;2.50;2.40;;;23.70;40.80;;;;;;20386;6879;280082;-88
2022/08/01 02:39:36;;;;;;;2.53;2.40;;;23.90;40.60;;;;;;20593;6880;117929;-92
2022/08/01 02:42:03;;;;;;;2.40;2.30;;;23.70;40.70;;;;;;20601;6881;119994;-88
2022/08/01 02:44:27;;;;;;;2.40;2.30;;;23.30;41.00;;;;;;20597;6881;117522;-92
2022/08/01 02:46:56;;;;;;;2.55;2.40;;;23.10;41.50;;;;;;20597;6881;117379;-91
2022/08/01 02:49:22;;;;;;;2.30;2.20;;;22.90;41.80;;;;;;20574;6881;122646;-91
2022/08/01 02:51:47;;;;;;;3.25;2.53;;;22.70;42.20;;;;;;20637;6881;117491;-91
2022/08/01 02:54:13;;;;;;;2.73;2.53;;;22.60;42.50;;;;;;20619;6881;118359;-88
2022/08/01 02:56:40;;;;;;;2.30;2.20;;;22.50;42.60;;;;;;20655;6881;116879;-92
2022/08/01 02:59:04;;;;;;;2.50;2.40;;;22.50;43.00;;;;;;20446;6881;308616;-91
2022/08/01 03:01:30;;;;;;;3.13;2.90;;;22.80;43.00;;;;;;20609;6881;118388;-88
2022/08/01 03:03:57;;;;;;;2.67;2.58;;;22.90;42.70;;;;;;20617;6881;118207;-88
2022/08/01 03:06:22;;;;;;;2.50;2.40;;;22.80;42.80;;;;;;20620;6881;120213;-88
2022/08/01 03:08:49;;;;;;;2.20;2.10;;;22.50;43.20;;;;;;20612;6881;117902;-91
2022/08/01 03:11:14;;;;;;;3.12;2.60;;;22.50;43.20;;;;;;20348;6881;342855;-88
2022/08/01 03:13:41;;;;;;;2.70;2.50;;;22.80;44.70;;;;;;20396;6881;280175;-89
2022/08/01 03:16:06;;;;;;;2.70;2.50;;;23.20;45.10;;;;;;20395;6881;280080;-89
2022/08/01 03:18:33;;;;;;;2.77;2.60;;;23.40;43.50;;;;;;20581;6881;118708;-89
2022/08/01 03:20:59;;;;;;;2.70;2.57;;;23.30;43.50;;;;;;20359;6881;279599;-86
2022/08/01 03:23:25;;;;;;;3.07;2.87;;;23.30;43.50;;;;;;20389;6881;284796;-89
2022/08/01 03:25:50;;;;;;;2.80;2.70;;;23.50;43.60;;;;;;20606;6881;117488;-91
2022/08/01 03:28:16;;;;;;;3.10;2.80;;;23.30;43.30;;;;;;20381;6881;309856;-90
2022/08/01 03:30:42;;;;;;;2.47;2.23;;;23.40;42.50;;;;;;20602;6881;118749;-90
2022/08/01 03:33:07;;;;;;;3.10;2.80;;;23.20;42.60;;;;;;20592;6881;147533;-88
2022/08/01 03:35:36;;;;;;;2.60;2.50;;;22.90;42.90;;;;;;20603;6881;118958;-91
2022/08/01 03:38:01;;;;;;;2.77;2.50;;;22.70;43.30;;;;;;20604;6881;121640;-92
2022/08/01 03:40:40;;;;;;;2.85;2.70;;;22.50;44.10;;;;;;20396;6881;339586;-91
2022/08/01 03:43:10;;;;;;;2.80;2.70;;;22.80;43.90;;;;;;20373;6881;309612;-92
2022/08/01 03:45:39;;;;;;;2.92;2.72;;;23.10;43.60;;;;;;20022;6881;300902;-90
2022/08/01 03:48:18;;;;;;;3.10;2.90;;;23.40;43.60;;;;;;20383;6880;279686;-92
2022/08/01 03:50:50;;;;;;;3.23;2.50;;;23.20;43.40;;;;;;20533;6880;117369;-91
2022/08/01 03:53:16;;;;;;;2.70;2.60;;;23.20;43.40;;;;;;20383;6881;309795;-91
2022/08/01 03:55:41;;;;;;;2.87;2.67;;;23.10;43.30;;;;;;20574;6881;118173;-91
2022/08/01 03:58:07;;;;;;;2.80;2.60;;;22.90;43.60;;;;;;20363;6881;310656;-93
2022/08/01 04:00:32;;;;;;;2.80;2.70;;;22.90;44.20;;;;;;20407;6881;327262;-91
2022/08/01 04:02:58;;;;;;;2.75;2.60;;;23.10;44.10;;;;;;20396;6881;310388;-90
2022/08/01 04:05:24;;;;;;;4.27;2.60;;;23.30;43.70;;;;;;20628;6881;122601;-91
2022/08/01 04:07:55;;;;;;;3.00;2.70;;;23.00;43.60;;;;;;20401;6881;312713;-91
2022/08/01 04:10:15;;;;;;;2.70;2.60;;;23.00;43.90;;;;;;20587;6881;118020;-90
2022/08/01 04:12:40;;;;;;;2.80;2.70;;;22.80;44.00;;;;;;20402;6881;309391;-93
2022/08/01 04:15:07;;;;;;;3.07;2.87;;;22.80;44.40;;;;;;20363;6881;344767;-91
2022/08/01 04:17:33;;;;;;;2.97;2.67;;;22.90;44.10;;;;;;20402;6881;280156;-92
2022/08/01 04:19:58;;;;;;;2.90;2.70;;;23.00;44.20;;;;;;20390;6881;280778;-91
2022/08/01 04:22:24;;;;;;;2.90;2.70;;;23.10;44.10;;;;;;20614;6881;117753;-91
2022/08/01 04:24:50;;;;;;;2.97;2.87;;;22.80;44.20;;;;;;20402;6881;314439;-92
2022/08/01 04:27:15;;;;;;;2.80;2.70;;;22.70;44.80;;;;;;20570;6881;120109;-91
2022/08/01 04:29:41;;;;;;;2.90;2.70;;;22.50;44.80;;;;;;20392;6881;280517;-91
2022/08/01 04:32:06;;;;;;;2.70;2.50;;;22.50;45.00;;;;;;20611;6881;117533;-91
2022/08/01 04:34:32;;;;;;;3.20;3.00;;;22.30;44.90;;;;;;20398;6881;284707;-93
2022/08/01 04:36:57;;;;;;;3.30;2.90;;;22.40;45.10;;;;;;20404;6881;339146;-91
2022/08/01 04:39:23;;;;;;;3.30;2.93;;;22.50;44.90;;;;;;20471;6881;118536;-91
2022/08/01 04:41:49;;;;;;;3.20;3.00;;;22.30;44.90;;;;;;20614;6881;117867;-90
2022/08/01 04:44:14;;;;;;;3.00;2.80;;;22.00;45.30;;;;;;20405;6881;289660;-90
2022/08/01 04:46:40;;;;;;;2.97;2.87;;;22.10;45.60;;;;;;20401;6881;311104;-89
2022/08/01 04:49:06;;;;;;;3.60;3.00;;;22.40;45.10;;;;;;20393;6881;287382;-90
2022/08/01 04:51:34;;;;;;;3.30;3.00;;;22.50;44.80;;;;;;20415;6881;309494;-91
2022/08/01 04:54:00;;;;;;;2.93;2.83;;;22.70;44.40;;;;;;20610;6881;118280;-90
2022/08/01 04:56:24;;;;;;;2.93;2.73;;;22.50;44.60;;;;;;20399;6881;324304;-90
2022/08/01 04:59:39;;;;;;;2.87;2.70;;;22.50;44.60;;;;;;20404;6881;310239;-90
2022/08/01 05:01:15;;;;;;;3.00;2.80;;;22.70;44.40;;;;;;20534;6880;144918;-90
2022/08/01 05:03:42;;;;;;;2.90;2.80;;;22.20;45.40;;;;;;20616;6881;117745;-89
2022/08/01 05:06:07;;;;;;;3.43;2.57;;;22.20;44.70;;;;;;20583;6881;117599;-89
2022/08/01 05:08:35;;;;;;;2.73;2.63;;;21.90;45.30;;;;;;20618;6881;118230;-89
2022/08/01 05:11:00;;;;;;;2.92;2.72;;;21.90;45.40;;;;;;20405;6881;309437;-87
2022/08/01 05:13:25;;;;;;;3.37;3.17;;;22.10;45.10;;;;;;20419;6881;313587;-86
2022/08/01 05:15:52;;;;;;;3.00;2.80;;;22.50;44.60;;;;;;20416;6881;310475;-87
2022/08/01 05:18:16;;;;;;;3.00;2.80;;;22.80;44.20;;;;;;20620;6881;118059;-87
2022/08/01 05:20:41;;;;;;;3.60;2.90;;;22.80;44.20;;;;;;20409;6881;314182;-86
2022/08/01 05:23:07;;;;;;;2.70;2.50;;;22.90;43.90;;;;;;20601;6881;117773;-86
2022/08/01 05:25:33;;;;;;;2.80;2.60;;;22.90;44.10;;;;;;20611;6881;117621;-85
2022/08/01 05:27:58;;;;;;;3.00;2.80;;;22.80;44.40;;;;;;20615;6881;117923;-85
2022/08/01 05:30:24;;;;;;;3.00;2.80;;;22.70;44.80;;;;;;20609;6881;118565;-85
2022/08/01 05:32:50;;;;;;;3.12;2.92;;;22.70;45.00;;;;;;20401;6881;284186;-91
2022/08/01 05:35:16;;;;;;;2.57;2.47;;;23.00;45.10;;;;;;20600;6881;121364;-86
2022/08/01 05:37:41;;;;;;;2.93;2.83;;;23.20;44.90;;;;;;20396;6881;344078;-87
2022/08/01 05:40:07;;;;;;;2.90;2.70;;;23.40;44.50;;;;;;20619;6881;117790;-88
2022/08/01 05:42:34;;;;;;;3.33;3.03;;;23.70;44.80;;;;;;20377;6881;310714;-91
2022/08/01 05:44:59;;;;;;;4.13;2.70;;;23.60;44.70;;;;;;20596;6881;118039;-86
2022/08/01 05:47:25;;;;;;;3.07;2.87;;;23.60;44.70;;;;;;20611;6881;117923;-87
2022/08/01 05:49:52;;;;;;;3.13;2.90;;;23.50;45.00;;;;;;20402;6881;302423;-84
2022/08/01 05:52:17;;;;;;;3.20;3.00;;;23.60;45.90;;;;;;20406;6881;314374;-84
2022/08/01 05:54:43;;;;;;;2.90;2.80;;;23.80;45.80;;;;;;20615;6881;117851;-86
2022/08/01 05:57:10;;;;;;;2.90;2.70;;;23.70;45.70;;;;;;20595;6881;118178;-83
2022/08/01 05:59:35;;;;;;;3.20;2.80;;;23.50;46.00;;;;;;20610;6881;118301;-84
2022/08/01 06:02:01;;;;;;;3.37;2.90;;;23.30;46.10;;;;;;20411;6881;279329;-86
2022/08/01 06:04:26;;;;;;;3.17;2.97;;;23.50;46.20;;;;;;20613;6881;119187;-86
2022/08/01 06:06:52;;;;;;;3.60;3.30;;;23.60;45.90;;;;;;20407;6881;279985;-90
2022/08/01 06:09:19;;;;;;;3.47;3.17;;;23.90;45.90;;;;;;20382;6881;280532;-87
2022/08/01 06:11:44;;;;;;;3.20;3.00;;;24.30;45.10;;;;;;20401;6879;328834;-87
2022/08/01 06:14:10;;;;;;;3.08;2.87;;;24.60;44.80;;;;;;20413;6880;309133;-86
2022/08/01 06:16:35;;;;;;;2.90;2.80;;;24.80;44.40;;;;;;20609;6881;120871;-86
2022/08/01 06:19:01;;;;;;;3.08;2.87;;;24.70;44.30;;;;;;20394;6881;280072;-85
2022/08/01 06:21:27;;;;;;;3.10;2.93;;;24.70;44.00;;;;;;20619;6881;118762;-86
2022/08/01 06:23:53;;;;;;;3.00;2.80;;;24.70;44.00;;;;;;20624;6881;117356;-86
2022/08/01 06:26:18;;;;;;;4.47;3.30;;;24.50;44.20;;;;;;20406;6881;280305;-86
2022/08/01 06:28:44;;;;;;;3.50;3.30;;;24.70;43.70;;;;;;20400;6881;314732;-85
2022/08/01 06:31:12;;;;;;;3.12;2.97;;;25.00;43.30;;;;;;20594;6881;117831;-85
2022/08/01 06:33:35;;;;;;;3.20;3.00;;;24.90;43.30;;;;;;20610;6881;118734;-85
2022/08/01 06:36:01;;;;;;;3.45;3.22;;;24.70;43.60;;;;;;20384;6881;280622;-85
2022/08/01 06:38:26;;;;;;;3.23;3.13;;;24.80;43.90;;;;;;20600;6881;116610;-85
2022/08/01 06:40:52;;;;;;;3.50;3.30;;;24.90;43.80;;;;;;20609;6881;118597;-85
2022/08/01 06:43:18;;;;;;;3.40;3.30;;;24.70;43.80;;;;;;20389;6881;309612;-85
2022/08/01 06:45:43;;;;;;;3.47;3.27;;;24.90;43.80;;;;;;20626;6881;118306;-83
2022/08/01 06:48:09;;;;;;;3.40;3.20;;;24.90;44.10;;;;;;20646;6881;116804;-83
2022/08/01 06:50:36;;;;;;;3.90;3.20;;;24.90;44.10;;;;;;20420;6881;284549;-85
2022/08/01 06:53:00;;;;;;;3.30;3.10;;;25.20;44.50;;;;;;20371;6881;313406;-85
2022/08/01 06:55:27;;;;;;;3.07;2.87;;;25.60;43.90;;;;;;20600;6881;121149;-85
2022/08/01 06:57:53;;;;;;;3.40;3.20;;;25.60;43.70;;;;;;20387;6881;280933;-84
2022/08/01 07:00:20;;;;;;;5.28;3.30;;;25.80;43.10;;;;;;20622;6881;117931;-86
2022/08/01 07:02:45;;;;;;;2.90;2.73;;;25.80;42.90;;;;;;20607;6881;121301;-87
2022/08/01 07:05:11;;;;;;;3.60;3.30;;;25.50;43.20;;;;;;20396;6881;280089;-85
2022/08/01 07:07:36;;;;;;;3.25;3.00;;;25.60;43.90;;;;;;20411;6881;280688;-84
2022/08/01 07:10:03;;;;;;;2.83;2.73;;;25.90;43.90;;;;;;20618;6881;118253;-85
2022/08/01 07:12:28;;;;;;;3.15;2.95;;;25.80;44.10;;;;;;20599;6881;118141;-84
2022/08/01 07:14:54;;;;;;;3.37;3.17;;;25.80;44.10;;;;;;20617;6881;117956;-85
2022/08/01 07:17:21;;;;;;;3.57;3.27;;;26.30;43.20;;;;;;20371;6881;302761;-85
2022/08/01 07:19:47;;;;;;;3.33;3.10;;;26.30;43.20;;;;;;20616;6881;117772;-85
2022/08/01 07:22:14;;;;;;;3.60;3.40;;;26.70;42.80;;;;;;20400;6881;347683;-84
2022/08/01 07:24:38;;;;;;;3.80;3.30;;;27.00;42.10;;;;;;20607;6879;118059;-86
2022/08/01 07:27:07;;;;;;;2.97;2.87;;;27.30;41.70;;;;;;20601;6881;127323;-85
2022/08/01 07:29:33;;;;;;;3.47;3.17;;;27.30;41.90;;;;;;20404;6881;310561;-85
2022/08/01 07:31:58;;;;;;;3.40;3.20;;;27.60;41.50;;;;;;20413;6881;280980;-85
2022/08/01 07:34:24;;;;;;;3.50;3.20;;;28.10;40.80;;;;;;20403;6881;279954;-84
2022/08/01 07:36:49;;;;;;;3.53;3.00;;;28.50;40.60;;;;;;20384;6881;314645;-85
2022/08/01 07:39:15;;;;;;;3.07;2.97;;;28.80;40.30;;;;;;20592;6880;117738;-85
2022/08/01 07:41:41;;;;;;;3.10;2.77;;;28.80;39.70;;;;;;20618;6880;117783;-84
2022/08/01 07:44:08;;;;;;;3.20;2.90;;;28.70;39.80;;;;;;20620;6880;121614;-86
2022/08/01 07:46:33;;;;;;;3.03;2.73;;;28.70;40.10;;;;;;20596;6880;118946;-85
2022/08/01 07:48:59;;;;;;;3.63;3.10;;;28.60;40.30;;;;;;20392;6880;280129;-85
2022/08/01 07:51:24;;;;;;;3.30;3.10;;;28.90;39.10;;;;;;20405;6880;309504;-85
2022/08/01 07:53:50;;;;;;;2.70;2.50;;;29.30;38.30;;;;;;20620;6880;122603;-85
2022/08/01 07:56:16;;;;;;;2.87;2.67;;;29.50;38.30;;;;;;20410;6880;285062;-85
2022/08/01 07:58:42;;;;;;;3.50;3.20;;;30.10;38.70;;;;;;20395;6880;280254;-86
2022/08/01 08:01:07;;;;;;;2.83;2.53;;;30.10;38.70;;;;;;20557;6892;118605;-86
2022/08/01 08:03:33;;;;;;;2.73;2.40;;;30.50;38.20;;;;;;20375;6892;310256;-86
2022/08/01 08:05:59;;;;;;;3.57;2.50;;;30.40;37.70;;;;;;20631;6877;117662;-85
2022/08/01 08:08:25;;;;;;;2.50;2.40;;;30.60;37.30;;;;;;20587;6892;117905;-85
2022/08/01 08:10:51;;;;;;;2.70;2.60;;;30.40;37.30;;;;;;20379;6892;314876;-86
2022/08/01 08:13:18;;;;;;;2.50;2.40;;;30.70;36.30;;;;;;20609;6877;117806;-85
2022/08/01 08:15:44;;;;;;;2.57;2.40;;;30.80;36.40;;;;;;20582;6892;118213;-85
2022/08/01 08:18:12;;;;;;;2.57;2.23;;;30.70;37.30;;;;;;20576;6892;122666;-86
2022/08/01 08:20:37;;;;;;;3.03;2.30;;;30.70;37.30;;;;;;20367;6892;340005;-86
2022/08/01 08:24:19;;;;;;;2.27;2.17;;;31.00;36.30;;;;;;20577;6892;123098;-88
2022/08/01 08:25:28;;;;;;;2.27;2.17;;;31.10;36.10;;;;;;20650;6648;109812;-87
2022/08/01 08:28:04;;;;;;;2.60;2.40;;;31.20;36.30;;;;;;20573;6781;279646;-88
2022/08/01 08:30:40;;;;;;;2.35;2.25;;;31.50;35.00;;;;;;20615;6749;283397;-88
2022/08/01 08:33:15;;;;;;;2.50;2.40;;;32.00;36.10;;;;;;20844;6749;121591;-87
2022/08/01 08:35:51;;;;;;;2.37;2.27;;;32.00;34.80;;;;;;20877;6754;119191;-87
2022/08/01 08:38:27;;;;;;;2.30;2.20;;;31.90;35.20;;;;;;20784;6769;117569;-87
2022/08/01 08:41:02;;;;;;;2.60;2.40;;;31.80;35.00;;;;;;20731;6768;118101;-88
2022/08/01 08:43:37;;;;;;;2.50;2.40;;;31.80;35.20;;;;;;20875;6754;118536;-88
2022/08/01 08:46:15;;;;;;;2.63;2.40;;;31.90;35.50;;;;;;20666;6754;307587;-87
2022/08/01 08:48:51;;;;;;;2.70;2.57;;;32.20;34.80;;;;;;20831;6769;117128;-88
2022/08/01 08:51:27;;;;;;;2.40;2.30;;;32.50;34.20;;;;;;20690;6801;117691;-87
2022/08/01 08:54:42;;;;;;;2.60;2.40;;;32.50;34.00;;;;;;20602;6770;308091;-88
2022/08/01 08:57:18;;;;;;;2.70;2.50;;;32.70;33.20;;;;;;20568;6785;120346;-88
2022/08/01 08:59:56;;;;;;;2.50;2.40;;;32.70;33.20;;;;;;20572;6786;307310;-88
2022/08/01 09:02:32;;;;;;;2.37;2.17;;;32.80;33.30;;;;;;20654;6761;337545;-89
2022/08/01 09:05:17;;;;;;;2.40;2.30;;;33.30;32.50;;;;;;20821;6514;275536;31
2022/08/01 09:07:41;;;;;;;2.40;2.30;;;33.50;31.90;;;;;;20762;6789;305729;31
2022/08/01 09:10:07;;;;;;;2.67;2.47;;;33.80;31.50;;;;;;20926;6790;116797;31
2022/08/01 09:12:33;;;;;;;3.00;2.67;;;33.60;31.80;;;;;;20750;6847;117090;31
2022/08/01 09:14:58;;;;;;;2.83;2.63;;;33.30;32.10;;;;;;20462;6873;280528;31
2022/08/01 09:17:24;;;;;;;2.55;2.45;;;33.20;32.10;;;;;;20468;6863;309544;31
2022/08/01 09:19:53;;;;;;;2.58;2.47;;;33.30;31.60;;;;;;20480;6862;309801;31
2022/08/01 09:22:20;;;;;;;3.00;2.53;;;33.30;31.60;;;;;;20415;6878;279646;31
2022/08/01 09:25:01;;;;;;;2.70;2.50;;;33.40;32.00;;;;;;20431;6878;279900;31
2022/08/01 09:27:26;;;;;;;2.33;2.23;;;33.40;31.70;;;;;;20476;6863;309060;31
2022/08/01 09:29:52;;;;;;;2.90;2.70;;;33.30;32.10;;;;;;20718;6863;92674;31
2022/08/01 09:32:18;;;;;;;2.77;2.57;;;33.00;32.50;;;;;;20509;6863;308387;31
2022/08/01 09:34:43;;;;;;;2.60;2.50;;;33.00;32.50;;;;;;20689;6863;116770;31
2022/08/01 09:37:09;;;;;;;2.50;2.40;;;33.00;33.00;;;;;;20669;6863;120197;31
2022/08/01 09:39:36;;;;;;;2.97;2.78;;;32.90;32.80;;;;;;20483;6863;279346;31
2022/08/01 09:42:00;;;;;;;2.40;2.20;;;33.10;31.70;;;;;;20676;6863;117116;31
2022/08/01 09:44:39;;;;;;;2.70;2.60;;;33.20;31.90;;;;;;20686;6863;117536;31
2022/08/01 09:47:04;;;;;;;2.50;2.40;;;33.00;32.20;;;;;;20665;6863;117418;31
2022/08/01 09:49:30;;;;;;;2.97;2.50;;;32.60;32.30;;;;;;20712;6863;66588;31
2022/08/01 09:51:56;;;;;;;2.80;2.70;;;32.20;32.50;;;;;;20520;6863;278250;31
2022/08/01 09:54:28;;;;;;;2.90;2.70;;;32.20;32.50;;;;;;20526;6863;339639;31
2022/08/01 09:56:54;;;;;;;3.00;2.83;;;32.30;33.10;;;;;;20474;6863;313395;31
2022/08/01 09:59:19;;;;;;;3.00;2.80;;;32.50;33.50;;;;;;20421;6862;279619;31
2022/08/01 10:01:45;;;;;;;2.93;2.60;;;32.60;32.60;;;;;;20699;6862;117464;31
2022/08/01 10:04:17;;;;;;;2.78;2.67;;;32.30;32.80;;;;;;20478;6862;280074;31
2022/08/01 10:06:43;;;;;;;2.77;2.57;;;32.30;33.60;;;;;;20694;6862;117262;31
2022/08/01 10:09:08;;;;;;;2.57;2.47;;;32.10;33.50;;;;;;20644;6856;117546;31
2022/08/01 10:11:34;;;;;;;3.17;2.87;;;31.80;33.70;;;;;;20468;6866;282933;31
2022/08/01 10:13:59;;;;;;;2.83;2.73;;;31.90;33.20;;;;;;20718;6856;118269;31
2022/08/01 10:16:25;;;;;;;3.23;3.03;;;31.80;33.50;;;;;;20744;6854;116781;31
2022/08/01 10:18:51;;;;;;;2.80;2.60;;;31.50;33.90;;;;;;20473;6865;281169;31
2022/08/01 10:21:17;;;;;;;2.97;2.77;;;31.90;34.50;;;;;;20505;6856;288784;31
2022/08/01 10:23:42;;;;;;;2.87;2.67;;;32.50;33.90;;;;;;20683;6865;118572;31
2022/08/01 10:26:08;;;;;;;3.17;2.53;;;32.80;32.90;;;;;;20655;6878;119737;31
2022/08/01 10:28:35;;;;;;;2.80;2.60;;;32.80;32.90;;;;;;20635;6877;117222;31
2022/08/01 10:31:00;;;;;;;2.63;2.53;;;32.60;32.60;;;;;;20637;6866;118581;31
2022/08/01 10:33:26;;;;;;;2.77;2.67;;;32.40;32.50;;;;;;20669;6871;117156;31
2022/08/01 10:35:52;;;;;;;2.65;2.55;;;32.10;32.50;;;;;;20665;6871;116995;31
2022/08/01 10:38:17;;;;;;;3.00;2.90;;;31.90;32.90;;;;;;20695;6859;117987;31
2022/08/01 10:40:43;;;;;;;2.70;2.60;;;31.70;33.30;;;;;;20452;6871;311768;31
2022/08/01 10:43:11;;;;;;;2.50;2.40;;;31.80;33.40;;;;;;20667;6866;117608;31
2022/08/01 10:45:37;;;;;;;2.80;2.70;;;31.80;33.10;;;;;;20727;6849;121646;31
2022/08/01 10:48:02;;;;;;;2.80;2.70;;;31.80;33.50;;;;;;20735;6849;116875;31
2022/08/01 10:50:34;;;;;;;2.87;2.77;;;31.60;33.70;;;;;;20722;6849;117986;31
2022/08/01 10:53:03;;;;;;;3.10;2.80;;;31.30;33.90;;;;;;20623;6871;117257;31
2022/08/01 10:55:28;;;;;;;2.67;2.58;;;31.00;34.00;;;;;;20452;6871;311495;31
2022/08/01 10:57:54;;;;;;;2.80;2.60;;;31.20;33.70;;;;;;20710;6859;117260;31
2022/08/01 11:00:19;;;;;;;2.83;2.70;;;31.20;34.00;;;;;;20455;6871;312644;31
2022/08/01 11:03:00;;;;;;;2.90;2.60;;;31.40;33.60;;;;;;20652;6871;115297;31
2022/08/01 11:05:24;;;;;;;2.65;2.55;;;31.30;33.50;;;;;;20439;6871;340109;31
2022/08/01 11:07:52;;;;;;;2.67;2.58;;;31.50;33.30;;;;;;20450;6871;310288;31
2022/08/01 11:10:38;;;;;;;2.50;2.40;;;31.60;33.30;;;;;;20661;6871;117100;31
2022/08/01 11:13:07;;;;;;;2.83;2.63;;;31.50;33.30;;;;;;20648;6868;120614;31
2022/08/01 11:15:29;;;;;;;2.90;2.80;;;31.10;33.70;;;;;;20459;6868;283362;31
2022/08/01 11:17:54;;;;;;;2.90;2.80;;;31.10;34.10;;;;;;20449;6868;342709;31
2022/08/01 11:20:23;;;;;;;2.87;2.78;;;31.20;33.80;;;;;;20675;6868;120218;31
2022/08/01 11:22:59;;;;;;;4.47;3.33;;;31.00;34.10;;;;;;20668;6868;120563;31
2022/08/01 11:25:25;;;;;;;3.90;3.63;;;30.70;34.80;;;;;;20459;6868;309637;31
2022/08/01 11:28:13;;;;;;;3.70;3.50;;;30.70;35.70;;;;;;20464;6867;309449;31
2022/08/01 11:30:38;;;;;;;3.97;3.73;;;30.90;35.20;;;;;;20485;6868;278804;31
2022/08/01 11:33:05;;;;;;;4.00;3.70;;;31.00;35.20;;;;;;20447;6868;339581;31
2022/08/01 11:35:29;;;;;;;3.80;3.50;;;31.10;35.40;;;;;;20453;6868;309798;31
2022/08/01 11:37:56;;;;;;;4.37;3.70;;;31.10;34.80;;;;;;20684;6868;117249;31
2022/08/01 11:40:24;;;;;;;3.83;3.50;;;30.90;35.00;;;;;;20462;6868;308909;31
2022/08/01 11:42:52;;;;;;;3.60;3.30;;;30.80;35.40;;;;;;20657;6868;117558;31
2022/08/01 11:45:18;;;;;;;3.20;3.10;;;30.70;35.10;;;;;;20349;6856;119479;31
2022/08/01 11:47:47;;;;;;;3.72;3.53;;;30.60;35.30;;;;;;20505;6857;307381;31
2022/08/01 11:50:29;;;;;;;5.70;3.93;;;30.70;35.60;;;;;;20713;6857;117139;31
2022/08/01 11:52:59;;;;;;;4.47;4.22;;;30.80;35.80;;;;;;20494;6857;336248;31
2022/08/01 11:55:24;;;;;;;4.43;4.20;;;31.10;36.00;;;;;;20733;6857;116885;31
2022/08/01 11:57:50;;;;;;;4.93;4.53;;;31.10;35.70;;;;;;20557;6857;306611;31
2022/08/01 12:00:16;;;;;;;4.37;4.07;;;31.20;35.80;;;;;;20743;6857;116309;31
2022/08/01 12:02:41;;;;;;;4.45;4.25;;;31.20;35.90;;;;;;20518;6857;310305;31
2022/08/01 12:05:11;;;;;;;4.23;4.03;;;31.50;36.50;;;;;;20698;6857;120029;31
2022/08/01 12:07:35;;;;;;;4.70;4.30;;;31.50;35.60;;;;;;20493;6857;306955;31
2022/08/01 12:10:01;;;;;;;4.40;4.20;;;31.70;34.80;;;;;;20488;6857;310252;31
2022/08/01 12:12:26;;;;;;;4.30;4.10;;;31.80;34.70;;;;;;20696;6856;114319;31
2022/08/01 12:14:55;;;;;;;4.23;3.93;;;31.70;34.80;;;;;;20703;6857;117606;31
2022/08/01 12:17:20;;;;;;;3.70;3.47;;;31.40;34.90;;;;;;20680;6857;117306;31
2022/08/01 12:19:46;;;;;;;4.57;4.37;;;31.10;35.20;;;;;;20459;6856;337848;31
2022/08/01 12:22:12;;;;;;;3.97;3.77;;;31.10;35.60;;;;;;20712;6857;117151;31
2022/08/01 12:24:37;;;;;;;10.00;4.63;;;31.10;35.30;;;;;;20705;6857;120300;31
2022/08/01 12:27:03;;;;;;;4.23;4.03;;;30.80;35.60;;;;;;20711;6857;117636;31
2022/08/01 12:29:39;;;;;;;4.50;4.10;;;30.70;35.90;;;;;;20481;6857;280648;31
2022/08/01 12:32:06;;;;;;;4.17;3.87;;;30.90;36.60;;;;;;20490;6857;280516;31
2022/08/01 12:34:33;;;;;;;4.00;3.80;;;31.40;36.60;;;;;;20694;6857;116826;31
2022/08/01 12:36:57;;;;;;;4.50;4.20;;;31.60;35.80;;;;;;20494;6857;308972;31
2022/08/01 12:39:22;;;;;;;4.33;4.13;;;31.90;35.50;;;;;;20695;6855;117919;31